createdAt,value
2022-07-28T00:01:23.915Z,89.30
2022-07-28T00:06:26.431Z,87.90
2022-07-28T00:11:28.877Z,88.00
2022-07-28T00:16:31.381Z,89.30
2022-07-28T00:21:34.946Z,90.70
2022-07-28T00:26:37.936Z,90.30
2022-07-28T00:31:40.667Z,90.90
2022-07-28T00:36:43.096Z,91.10
2022-07-28T00:41:46.353Z,90.80
2022-07-28T00:46:50.319Z,90.80
2022-07-28T00:51:53.434Z,90.90
2022-07-28T00:56:56.093Z,91.20
2022-07-28T01:01:58.825Z,91.90
2022-07-28T01:07:16.526Z,92.10
2022-07-28T01:12:23.303Z,92.90
2022-07-28T01:17:28.682Z,93.40
2022-07-28T01:22:35.139Z,93.40
2022-07-28T01:27:53.342Z,92.80
2022-07-28T01:33:04.082Z,92.60
2022-07-28T01:38:08.839Z,93.00
2022-07-28T01:43:17.609Z,93.50
2022-07-28T01:48:20.971Z,94.80
2022-07-28T01:53:25.349Z,95.40
2022-07-28T01:58:30.302Z,95.50
2022-07-28T02:03:34.701Z,96.10
2022-07-28T02:08:39.676Z,96.50
2022-07-28T02:13:42.917Z,97.00
2022-07-28T02:18:45.877Z,96.90
2022-07-28T02:23:50.372Z,96.60
2022-07-28T02:28:56.485Z,97.70
2022-07-28T02:34:03.265Z,98.60
2022-07-28T02:39:12.079Z,98.90
2022-07-28T02:44:21.555Z,98.20
2022-07-28T02:49:30.837Z,98.10
2022-07-28T02:54:35.282Z,99.20
2022-07-28T02:59:38.324Z,99.90
2022-07-28T03:04:59.614Z,99.90
2022-07-28T03:10:04.066Z,99.90
2022-07-28T03:15:06.834Z,99.90
2022-07-28T03:20:10.171Z,99.90
2022-07-28T03:25:19.283Z,99.90
2022-07-28T03:30:27.845Z,99.90
2022-07-28T03:35:32.894Z,99.90
2022-07-28T03:40:37.699Z,99.90
2022-07-28T03:45:41.765Z,99.90
2022-07-28T03:50:49.274Z,99.90
2022-07-28T03:55:52.147Z,99.90
2022-07-28T04:00:54.881Z,99.90
2022-07-28T04:05:57.990Z,99.90
2022-07-28T04:11:00.483Z,99.90
2022-07-28T04:16:03.784Z,99.90
2022-07-28T04:21:06.584Z,99.90
2022-07-28T04:26:09.059Z,99.90
2022-07-28T04:31:11.586Z,99.90
2022-07-28T04:36:14.262Z,99.90
2022-07-28T04:41:16.729Z,99.90
2022-07-28T04:46:19.506Z,99.90
2022-07-28T04:51:23.203Z,99.90
2022-07-28T04:56:25.691Z,99.90
2022-07-28T05:01:30.939Z,99.90
2022-07-28T05:06:35.422Z,99.90
2022-07-28T05:11:37.810Z,99.90
2022-07-28T05:16:40.253Z,99.90
2022-07-28T05:21:42.903Z,99.90
2022-07-28T05:26:45.679Z,99.90
2022-07-28T05:31:48.381Z,99.70
2022-07-28T05:36:52.354Z,99.60
2022-07-28T05:41:54.794Z,98.50
2022-07-28T05:46:57.209Z,97.60
2022-07-28T05:51:59.702Z,97.20
2022-07-28T05:57:02.137Z,96.90
2022-07-28T06:02:04.626Z,95.90
2022-07-28T06:07:09.543Z,95.20
2022-07-28T06:12:12.451Z,94.40
2022-07-28T06:17:16.012Z,91.70
2022-07-28T06:22:18.480Z,90.60
2022-07-28T06:27:20.937Z,90.70
2022-07-28T06:32:23.335Z,91.00
2022-07-28T06:37:26.489Z,89.70
2022-07-28T06:42:28.955Z,86.10
2022-07-28T06:47:31.791Z,85.50
2022-07-28T06:52:37.078Z,85.60
2022-07-28T06:57:39.519Z,83.10
2022-07-28T07:02:42.528Z,82.60
2022-07-28T07:07:45.112Z,82.20
2022-07-28T07:12:47.892Z,81.50
2022-07-28T07:17:50.340Z,80.90
2022-07-28T07:22:52.822Z,79.30
2022-07-28T07:27:55.469Z,79.30
2022-07-28T07:32:57.887Z,77.70
2022-07-28T07:38:00.801Z,76.60
2022-07-28T07:43:03.297Z,75.50
2022-07-28T07:48:05.947Z,76.30
2022-07-28T07:53:08.360Z,74.70
2022-07-28T07:58:10.855Z,73.60
2022-07-28T08:03:15.212Z,73.00
2022-07-28T08:08:17.792Z,75.00
2022-07-28T08:13:23.842Z,74.80
2022-07-28T08:18:26.318Z,70.60
2022-07-28T08:23:28.803Z,68.40
2022-07-28T08:28:31.272Z,68.40
2022-07-28T08:33:33.991Z,68.00
2022-07-28T08:38:36.810Z,67.80
2022-07-28T08:43:42.596Z,66.20
2022-07-28T08:48:45.975Z,65.40
2022-07-28T08:53:50.140Z,66.20
2022-07-28T08:58:53.142Z,66.40
2022-07-28T09:03:55.919Z,65.90
2022-07-28T09:08:58.383Z,62.80
2022-07-28T09:14:00.817Z,63.00
2022-07-28T09:19:03.273Z,61.30
2022-07-28T09:24:06.264Z,59.70
2022-07-28T09:29:08.706Z,59.50
2022-07-28T09:34:11.442Z,58.50
2022-07-28T09:39:38.528Z,59.30
2022-07-28T09:44:50.749Z,57.10
2022-07-28T09:50:04.925Z,57.90
2022-07-28T09:55:11.926Z,56.70
2022-07-28T10:00:27.917Z,56.80
2022-07-28T10:05:41.116Z,55.70
2022-07-28T10:10:58.510Z,54.60
2022-07-28T10:16:11.455Z,53.20
2022-07-28T10:21:17.137Z,52.00
2022-07-28T10:26:24.978Z,51.70
2022-07-28T10:31:48.873Z,51.40
2022-07-28T10:36:52.930Z,49.00
2022-07-28T10:41:56.617Z,48.80
2022-07-28T10:46:59.289Z,47.90
2022-07-28T10:52:19.725Z,47.20
2022-07-28T10:57:30.487Z,44.40
2022-07-28T11:02:50.945Z,45.60
2022-07-28T11:07:54.205Z,44.90
2022-07-28T11:12:58.441Z,43.50
2022-07-28T11:18:08.732Z,43.10
2022-07-28T11:23:47.714Z,42.40
2022-07-28T11:29:11.239Z,40.20
2022-07-28T11:34:22.141Z,40.50
2022-07-28T11:39:26.270Z,38.40
2022-07-28T11:44:31.418Z,38.00
2022-07-28T11:49:34.071Z,36.10
2022-07-28T11:54:37.938Z,35.90
2022-07-28T11:59:47.192Z,35.00
2022-07-28T12:05:04.097Z,33.90
2022-07-28T12:15:57.639Z,33.50
2022-07-28T12:21:04.742Z,33.10
2022-07-28T12:26:07.859Z,31.80
2022-07-28T12:36:44.356Z,29.90
2022-07-28T12:42:04.405Z,29.70
2022-07-28T12:47:09.356Z,31.30
2022-07-28T12:52:22.717Z,29.80
2022-07-28T12:57:52.825Z,29.10
2022-07-28T13:02:57.599Z,28.20
2022-07-28T13:08:05.827Z,26.90
2022-07-28T13:13:08.800Z,25.90
2022-07-28T13:18:12.710Z,25.50
2022-07-28T13:23:15.454Z,25.90
2022-07-28T13:28:28.324Z,25.00
2022-07-28T13:33:30.920Z,23.70
2022-07-28T13:38:33.636Z,24.60
2022-07-28T13:43:36.648Z,24.80
2022-07-28T13:48:58.185Z,24.30
2022-07-28T13:54:02.903Z,23.10
2022-07-28T13:59:07.403Z,22.90
2022-07-28T14:04:16.621Z,23.70
2022-07-28T14:09:20.990Z,21.60
2022-07-28T14:14:25.241Z,21.50
2022-07-28T14:19:38.853Z,21.20
2022-07-28T14:24:42.684Z,20.90
2022-07-28T14:29:45.759Z,21.10
2022-07-28T14:34:48.162Z,20.60
2022-07-28T14:39:50.647Z,21.10
2022-07-28T14:44:53.589Z,20.20
2022-07-28T14:49:57.400Z,20.00
2022-07-28T14:55:00.853Z,19.70
2022-07-28T15:00:07.349Z,20.20
2022-07-28T15:05:10.356Z,20.60
2022-07-28T15:10:12.700Z,19.80
2022-07-28T15:15:15.044Z,19.40
2022-07-28T15:20:18.590Z,19.30
2022-07-28T15:25:21.074Z,19.40
2022-07-28T15:30:23.805Z,18.90
2022-07-28T15:35:26.259Z,18.80
2022-07-28T15:40:28.652Z,18.90
2022-07-28T15:45:32.610Z,19.20
2022-07-28T15:50:34.991Z,18.20
2022-07-28T15:55:37.377Z,18.40
2022-07-28T16:00:39.769Z,17.90
2022-07-28T16:05:44.084Z,17.30
2022-07-28T16:10:47.431Z,17.40
2022-07-28T16:15:49.959Z,18.90
2022-07-28T16:20:52.583Z,18.40
2022-07-28T16:25:55.054Z,18.20
2022-07-28T16:30:57.442Z,17.90
2022-07-28T16:35:59.859Z,18.50
2022-07-28T16:41:02.213Z,19.10
2022-07-28T16:46:04.874Z,19.40
2022-07-28T16:51:07.662Z,18.70
2022-07-28T16:56:10.082Z,21.00
2022-07-28T17:01:13.966Z,20.30
2022-07-28T17:06:16.398Z,18.60
2022-07-28T17:11:18.859Z,20.50
2022-07-28T17:16:21.265Z,20.70
2022-07-28T17:21:24.134Z,22.40
2022-07-28T17:31:49.855Z,23.50
2022-07-28T17:36:54.708Z,26.20
2022-07-28T17:41:57.359Z,29.50
2022-07-28T17:47:01.449Z,30.60
2022-07-28T17:52:06.064Z,32.70
2022-07-28T17:57:08.463Z,34.30
2022-07-28T18:02:11.231Z,36.60
2022-07-28T18:07:14.350Z,37.90
2022-07-28T18:12:17.361Z,40.20
2022-07-28T18:17:19.697Z,42.00
2022-07-28T18:22:22.369Z,41.60
2022-07-28T18:27:24.738Z,43.10
2022-07-28T18:32:27.085Z,44.30
2022-07-28T18:37:30.874Z,43.70
2022-07-28T18:42:33.948Z,43.50
2022-07-28T18:47:37.574Z,47.10
2022-07-28T18:52:49.825Z,48.70
2022-07-28T18:57:52.286Z,50.40
2022-07-28T19:02:54.878Z,52.70
2022-07-28T19:07:57.336Z,54.50
2022-07-28T19:12:59.836Z,55.00
2022-07-28T19:18:09.821Z,55.80
2022-07-28T19:23:14.735Z,56.60
2022-07-28T19:28:17.094Z,57.40
2022-07-28T19:33:21.408Z,58.20
2022-07-28T19:38:24.396Z,58.90
2022-07-28T19:43:26.757Z,60.30
2022-07-28T19:48:29.167Z,61.20
2022-07-28T19:53:34.499Z,60.50
2022-07-28T19:58:38.811Z,60.90
2022-07-28T20:04:01.414Z,62.80
2022-07-28T20:09:04.932Z,65.30
2022-07-28T20:14:07.328Z,65.30
2022-07-28T20:19:09.756Z,66.30
2022-07-28T20:24:13.832Z,67.10
2022-07-28T20:29:16.583Z,65.70
2022-07-28T20:34:19.594Z,65.90
2022-07-28T20:39:43.948Z,68.30
2022-07-28T20:44:45.227Z,68.60
2022-07-28T20:49:47.568Z,68.00
2022-07-28T20:54:54.365Z,67.30
2022-07-28T20:59:57.698Z,68.10
2022-07-28T21:05:00.101Z,69.50
2022-07-28T21:10:02.802Z,69.20
2022-07-28T21:15:06.613Z,69.40
2022-07-28T21:20:09.592Z,69.40
2022-07-28T21:25:12.368Z,70.50
2022-07-28T21:30:14.703Z,70.10
2022-07-28T21:35:17.112Z,71.50
2022-07-28T21:40:19.530Z,72.00
2022-07-28T21:45:22.291Z,72.50
2022-07-28T21:50:24.718Z,72.60
2022-07-28T21:55:27.220Z,72.80
2022-07-28T22:00:29.805Z,73.70
2022-07-28T22:05:32.220Z,73.80
2022-07-28T22:10:34.595Z,74.00
2022-07-28T22:15:37.093Z,75.10
2022-07-28T22:20:41.133Z,75.20
2022-07-28T22:25:44.124Z,75.80
2022-07-28T22:30:46.490Z,76.20
2022-07-28T22:35:48.832Z,76.20
2022-07-28T22:40:51.178Z,75.70
2022-07-28T22:45:53.564Z,76.80
2022-07-28T22:50:56.040Z,77.60
2022-07-28T22:55:58.646Z,78.00
2022-07-28T23:01:01.238Z,77.30
2022-07-28T23:06:05.702Z,77.80
2022-07-28T23:11:08.106Z,78.30
2022-07-28T23:16:11.889Z,76.70
2022-07-28T23:21:14.308Z,76.50
2022-07-28T23:26:17.029Z,76.00
2022-07-28T23:31:19.447Z,76.10
2022-07-28T23:36:27.645Z,76.80
2022-07-28T23:41:30.507Z,77.40
2022-07-28T23:46:33.099Z,77.40
2022-07-28T23:51:46.761Z,77.30
2022-07-28T23:56:52.380Z,77.00
